Wetterdaten: Woche 27.02.17 - 05.03.17 (KW9)
Datum Zeit Temp. A. Feuchte A. Luftdruck Regen Wind Richtung Taupunkt Windchill Windben
27.02.2017 00:00 1,8 C 72 % 1016,0 hPa 0,0 l/m 0,1 km/h N -2,7 C 1,8 C 1,6 km/h
27.02.2017 01:00 0,5 C 74 % 1016,0 hPa 0,0 l/m 0,0 km/h N -3,7 C 0,5 C 0,0 km/h
27.02.2017 02:00 -0,5 C 77 % 1015,8 hPa 0,0 l/m 0,0 km/h N -4,0 C -0,5 C 0,4 km/h
27.02.2017 03:00 -1,3 C 79 % 1015,8 hPa 0,0 l/m 0,0 km/h N -4,5 C -1,3 C 0,0 km/h
27.02.2017 04:00 -1,7 C 81 % 1015,6 hPa 0,0 l/m 0,0 km/h N -4,6 C -1,7 C 0,0 km/h
27.02.2017 05:00 -2,0 C 81 % 1015,7 hPa 0,0 l/m 0,0 km/h N -4,8 C -2,0 C 0,0 km/h
27.02.2017 06:00 -2,4 C 82 % 1015,6 hPa 0,0 l/m 0,0 km/h N -5,0 C -2,4 C 0,0 km/h
27.02.2017 07:00 -2,5 C 83 % 1015,5 hPa 0,0 l/m 0,0 km/h N -5,1 C -2,5 C 0,0 km/h
27.02.2017 08:00 -1,9 C 83 % 1015,4 hPa 0,0 l/m 0,0 km/h N -4,4 C -1,9 C 0,0 km/h
27.02.2017 09:00 -0,3 C 84 % 1015,0 hPa 0,0 l/m 0,0 km/h N -2,7 C -0,3 C 0,0 km/h
27.02.2017 10:00 4,2 C 81 % 1014,3 hPa 0,0 l/m 0,1 km/h N 1,2 C 4,2 C 3,2 km/h
27.02.2017 11:00 6,7 C 68 % 1013,3 hPa 0,0 l/m 0,1 km/h N 1,1 C 6,7 C 4,4 km/h
27.02.2017 12:00 7,9 C 65 % 1011,7 hPa 0,0 l/m 0,3 km/h N 1,8 C 7,9 C 3,6 km/h
27.02.2017 13:00 10,1 C 58 % 1010,1 hPa 0,0 l/m 1,0 km/h N 2,1 C 10,1 C 9,3 km/h
27.02.2017 14:00 11,1 C 57 % 1007,9 hPa 0,0 l/m 0,4 km/h N 2,9 C 11,1 C 7,2 km/h
27.02.2017 15:00 12,8 C 49 % 1006,6 hPa 0,0 l/m 2,8 km/h N 2,4 C 12,8 C 12,9 km/h
27.02.2017 16:00 13,1 C 48 % 1006,0 hPa 0,0 l/m 2,3 km/h N 2,3 C 13,1 C 12,9 km/h
27.02.2017 17:00 12,4 C 48 % 1005,2 hPa 0,0 l/m 1,4 km/h N 1,7 C 12,4 C 10,1 km/h
27.02.2017 18:00 11,8 C 49 % 1004,9 hPa 0,0 l/m 1,0 km/h N 1,5 C 11,8 C 9,7 km/h
27.02.2017 19:00 10,6 C 51 % 1004,5 hPa 0,0 l/m 0,4 km/h N 0,7 C 10,6 C 5,2 km/h
27.02.2017 20:00 8,6 C 54 % 1004,1 hPa 0,0 l/m 0,0 km/h N -0,3 C 8,6 C 0,0 km/h
27.02.2017 21:00 5,3 C 61 % 1004,0 hPa 0,0 l/m 0,0 km/h N -1,7 C 5,3 C 0,0 km/h
27.02.2017 22:00 3,3 C 69 % 1003,4 hPa 0,0 l/m 0,0 km/h N -1,9 C 3,3 C 0,0 km/h
27.02.2017 23:00 1,5 C 73 % 1002,9 hPa 0,0 l/m 0,0 km/h N -2,8 C 1,5 C 0,0 km/h
28.02.2017 00:00 0,4 C 78 % 1002,2 hPa 0,0 l/m 0,0 km/h N -3,0 C 0,4 C 0,0 km/h
28.02.2017 01:00 -0,1 C 79 % 1001,8 hPa 0,0 l/m 0,0 km/h N -3,2 C -0,1 C 0,0 km/h
28.02.2017 02:00 -0,9 C 80 % 1001,1 hPa 0,0 l/m 0,0 km/h N -3,9 C -0,9 C 0,0 km/h
28.02.2017 03:00 -1,6 C 81 % 1000,2 hPa 0,0 l/m 0,0 km/h N -4,5 C -1,6 C 0,0 km/h
28.02.2017 04:00 -2,1 C 82 % 999,7 hPa 0,0 l/m 0,0 km/h N -4,7 C -2,1 C 0,0 km/h
28.02.2017 05:00 -2,2 C 83 % 998,9 hPa 0,0 l/m 0,0 km/h N -4,7 C -2,2 C 0,0 km/h
28.02.2017 06:00 -1,7 C 84 % 998,2 hPa 0,0 l/m 0,0 km/h N -4,1 C -1,7 C 0,0 km/h
28.02.2017 07:00 -0,9 C 84 % 998,4 hPa 0,0 l/m 0,1 km/h N -3,2 C -0,9 C 1,6 km/h
28.02.2017 08:00 0,1 C 84 % 998,8 hPa 0,0 l/m 0,2 km/h N -2,3 C 0,1 C 1,2 km/h
28.02.2017 09:00 4,5 C 80 % 999,5 hPa 0,0 l/m 0,1 km/h N 1,4 C 4,5 C 2,0 km/h
28.02.2017 10:00 8,8 C 63 % 1000,5 hPa 0,0 l/m 1,8 km/h N 2,1 C 8,7 C 8,0 km/h
28.02.2017 11:00 10,8 C 54 % 1002,1 hPa 0,0 l/m 14,6 km/h N 1,8 C 6,4 C 38,6 km/h
28.02.2017 12:00 10,6 C 57 % 1002,6 hPa 0,0 l/m 14,7 km/h N 2,4 C 6,1 C 36,6 km/h
28.02.2017 13:00 10,7 C 57 % 1003,1 hPa 0,0 l/m 10,6 km/h N 2,5 C 8,1 C 26,5 km/h
28.02.2017 14:00 11,0 C 57 % 1002,8 hPa 0,0 l/m 3,0 km/h N 2,7 C 11,0 C 11,3 km/h
28.02.2017 15:00 10,8 C 59 % 1002,4 hPa 0,0 l/m 0,1 km/h N 3,0 C 10,8 C 3,2 km/h
28.02.2017 16:00 10,0 C 61 % 1001,4 hPa 0,0 l/m 0,1 km/h N 2,8 C 10,0 C 2,8 km/h
28.02.2017 17:00 8,9 C 65 % 1000,5 hPa 0,0 l/m 0,0 km/h N 2,7 C 8,9 C 0,8 km/h
28.02.2017 18:00 7,6 C 69 % 999,6 hPa 0,0 l/m 0,0 km/h N 2,2 C 7,6 C 0,4 km/h
28.02.2017 19:00 8,1 C 73 % 998,6 hPa 0,0 l/m 0,0 km/h N 3,5 C 8,1 C 2,0 km/h
28.02.2017 20:00 9,7 C 69 % 997,3 hPa 0,0 l/m 1,2 km/h N 4,2 C 9,7 C 9,3 km/h
28.02.2017 21:00 11,2 C 63 % 996,6 hPa 0,0 l/m 3,3 km/h N 4,3 C 11,2 C 14,5 km/h
28.02.2017 22:00 10,9 C 64 % 997,7 hPa 0,3 l/m 6,1 km/h N 4,2 C 9,5 C 20,5 km/h
28.02.2017 23:00 7,1 C 77 % 1000,3 hPa 0,3 l/m 14,1 km/h N 3,4 C 2,2 C 40,7 km/h
01.03.2017 00:00 6,7 C 74 % 1000,2 hPa 0,0 l/m 11,3 km/h N 2,5 C 3,2 C 34,2 km/h
01.03.2017 01:00 6,9 C 71 % 1000,9 hPa 0,0 l/m 11,0 km/h N 2,0 C 3,6 C 31,4 km/h
01.03.2017 02:00 7,0 C 69 % 1001,1 hPa 0,0 l/m 9,0 km/h N 1,7 C 5,0 C 29,8 km/h
01.03.2017 03:00 7,2 C 66 % 1000,6 hPa 0,0 l/m 9,5 km/h N 1,3 C 4,9 C 28,6 km/h
01.03.2017 04:00 7,6 C 64 % 1001,2 hPa 0,0 l/m 14,4 km/h N 1,2 C 2,6 C 35,8 km/h
01.03.2017 05:00 7,2 C 66 % 1002,4 hPa 0,0 l/m 17,9 km/h N 1,2 C 0,5 C 39,5 km/h
01.03.2017 06:00 6,3 C 67 % 1003,3 hPa 0,0 l/m 17,1 km/h N 0,5 C -0,3 C 36,6 km/h
01.03.2017 07:00 6,2 C 64 % 1004,3 hPa 0,0 l/m 16,7 km/h N -0,1 C -0,3 C 35,4 km/h
01.03.2017 08:00 6,2 C 65 % 1005,2 hPa 0,0 l/m 14,1 km/h N 0,0 C 1,0 C 29,8 km/h
01.03.2017 09:00 6,4 C 67 % 1005,4 hPa 0,0 l/m 14,1 km/h N 0,6 C 1,2 C 29,4 km/h
01.03.2017 10:00 7,0 C 61 % 1005,7 hPa 0,0 l/m 17,1 km/h N -0,1 C 0,7 C 39,4 km/h
01.03.2017 11:00 7,4 C 59 % 1006,3 hPa 0,0 l/m 18,1 km/h N 0,0 C 0,7 C 39,4 km/h
01.03.2017 12:00 8,7 C 56 % 1006,0 hPa 0,0 l/m 16,1 km/h N 0,5 C 3,1 C 36,6 km/h
01.03.2017 13:00 9,8 C 52 % 1006,3 hPa 0,0 l/m 16,3 km/h N 0,3 C 4,4 C 35,8 km/h
01.03.2017 14:00 10,3 C 49 % 1006,6 hPa 0,0 l/m 16,0 km/h N 0,0 C 5,1 C 40,2 km/h
01.03.2017 15:00 10,2 C 49 % 1007,4 hPa 0,0 l/m 13,7 km/h N -0,0 C 6,0 C 31,4 km/h
01.03.2017 16:00 10,1 C 50 % 1007,9 hPa 0,0 l/m 10,7 km/h N 0,1 C 7,5 C 28,9 km/h
01.03.2017 17:00 9,7 C 50 % 1008,4 hPa 0,0 l/m 8,6 km/h N -0,2 C 8,2 C 23,7 km/h
01.03.2017 18:00 8,9 C 52 % 1009,1 hPa 0,0 l/m 6,1 km/h N -0,4 C 8,3 C 18,5 km/h
01.03.2017 19:00 8,5 C 53 % 1009,7 hPa 0,0 l/m 4,8 km/h N -0,5 C 8,4 C 15,7 km/h
01.03.2017 20:00 7,8 C 55 % 1010,4 hPa 0,0 l/m 0,6 km/h N -0,8 C 7,8 C 6,5 km/h
01.03.2017 21:00 5,5 C 58 % 1010,8 hPa 0,0 l/m 0,0 km/h N -2,1 C 5,5 C 0,0 km/h
01.03.2017 22:00 3,0 C 66 % 1011,1 hPa 0,0 l/m 0,0 km/h N -2,8 C 3,0 C 0,0 km/h
01.03.2017 23:00 1,6 C 73 % 1010,9 hPa 0,0 l/m 0,0 km/h N -2,8 C 1,6 C 0,4 km/h
02.03.2017 00:00 1,1 C 75 % 1010,5 hPa 0,0 l/m 0,0 km/h N -2,8 C 1,1 C 0,0 km/h
02.03.2017 01:00 0,5 C 78 % 1009,9 hPa 0,0 l/m 0,0 km/h N -2,9 C 0,5 C 0,0 km/h
02.03.2017 02:00 0,4 C 80 % 1009,0 hPa 0,0 l/m 0,0 km/h N -2,7 C 0,4 C 0,0 km/h
02.03.2017 03:00 2,0 C 77 % 1008,4 hPa 0,0 l/m 0,4 km/h N -1,7 C 2,0 C 6,0 km/h
02.03.2017 04:00 3,4 C 73 % 1008,0 hPa 0,0 l/m 0,4 km/h N -1,0 C 3,4 C 3,6 km/h
02.03.2017 05:00 3,5 C 76 % 1008,9 hPa 0,3 l/m 0,3 km/h N -0,4 C 3,5 C 4,4 km/h
02.03.2017 06:00 3,2 C 81 % 1009,1 hPa 0,0 l/m 0,0 km/h N 0,2 C 3,2 C 0,4 km/h
02.03.2017 07:00 3,5 C 83 % 1009,5 hPa 0,0 l/m 0,0 km/h N 0,8 C 3,5 C 1,2 km/h
02.03.2017 08:00 4,9 C 83 % 1009,7 hPa 0,0 l/m 0,1 km/h N 2,2 C 4,9 C 2,8 km/h
02.03.2017 09:00 10,4 C 73 % 1009,5 hPa 0,0 l/m 7,8 km/h N 5,7 C 9,2 C 24,5 km/h
02.03.2017 10:00 12,0 C 64 % 1009,7 hPa 0,0 l/m 10,9 km/h N 5,5 C 9,4 C 34,6 km/h
02.03.2017 11:00 12,6 C 62 % 1010,3 hPa 0,0 l/m 9,1 km/h N 5,5 C 10,9 C 26,5 km/h
02.03.2017 12:00 13,6 C 59 % 1010,8 hPa 0,0 l/m 9,0 km/h N 5,7 C 12,2 C 27,4 km/h
02.03.2017 13:00 10,4 C 65 % 1011,7 hPa 1,0 l/m 9,2 km/h N 4,0 C 8,6 C 37,0 km/h
02.03.2017 14:00 11,4 C 62 % 1012,3 hPa 0,0 l/m 7,5 km/h N 4,3 C 10,7 C 23,7 km/h
02.03.2017 15:00 11,8 C 55 % 1012,7 hPa 0,0 l/m 7,9 km/h N 3,0 C 10,7 C 25,3 km/h
02.03.2017 16:00 11,5 C 48 % 1013,2 hPa 0,3 l/m 12,2 km/h N 1,0 C 8,2 C 33,8 km/h
02.03.2017 17:00 10,9 C 47 % 1014,0 hPa 0,0 l/m 8,7 km/h N -0,0 C 9,3 C 28,2 km/h
02.03.2017 18:00 10,2 C 45 % 1014,9 hPa 0,0 l/m 4,1 km/h N -1,1 C 10,2 C 17,7 km/h
02.03.2017 19:00 10,1 C 46 % 1015,5 hPa 0,0 l/m 3,8 km/h N -1,2 C 10,1 C 16,1 km/h
02.03.2017 20:00 9,6 C 48 % 1016,2 hPa 0,0 l/m 1,6 km/h N -0,9 C 9,6 C 10,1 km/h
02.03.2017 21:00 8,3 C 54 % 1017,0 hPa 0,0 l/m 1,7 km/h N -0,6 C 8,3 C 10,5 km/h
02.03.2017 22:00 8,1 C 55 % 1017,6 hPa 0,0 l/m 3,7 km/h N -0,4 C 8,1 C 16,9 km/h
02.03.2017 23:00 8,4 C 53 % 1017,9 hPa 0,0 l/m 5,8 km/h N -0,8 C 8,2 C 18,9 km/h
03.03.2017 00:00 7,9 C 52 % 1018,5 hPa 0,0 l/m 4,8 km/h N -1,3 C 7,9 C 18,5 km/h
03.03.2017 01:00 7,6 C 51 % 1018,7 hPa 0,0 l/m 4,0 km/h N -1,8 C 7,6 C 13,3 km/h
03.03.2017 02:00 7,2 C 54 % 1018,8 hPa 0,0 l/m 3,1 km/h N -1,4 C 7,2 C 8,9 km/h
03.03.2017 03:00 6,4 C 55 % 1019,2 hPa 0,0 l/m 0,6 km/h N -1,9 C 6,4 C 6,0 km/h
03.03.2017 04:00 5,9 C 57 % 1019,3 hPa 0,0 l/m 1,4 km/h N -2,0 C 5,9 C 8,4 km/h
03.03.2017 05:00 6,2 C 55 % 1019,6 hPa 0,0 l/m 1,5 km/h N -2,1 C 6,2 C 8,9 km/h
03.03.2017 06:00 4,7 C 57 % 1020,1 hPa 0,0 l/m 0,0 km/h N -3,0 C 4,7 C 0,8 km/h
03.03.2017 07:00 4,0 C 64 % 1020,3 hPa 0,0 l/m 0,2 km/h N -2,3 C 4,0 C 3,6 km/h
03.03.2017 08:00 5,5 C 62 % 1020,1 hPa 0,0 l/m 0,1 km/h N -1,3 C 5,5 C 2,0 km/h
03.03.2017 09:00 8,5 C 57 % 1019,8 hPa 0,0 l/m 0,0 km/h N 0,6 C 8,5 C 2,0 km/h
03.03.2017 10:00 12,0 C 44 % 1018,8 hPa 0,0 l/m 0,7 km/h N 0,1 C 12,0 C 6,8 km/h
03.03.2017 11:00 14,2 C 40 % 1017,3 hPa 0,0 l/m 1,8 km/h N 0,6 C 14,2 C 10,8 km/h
03.03.2017 12:00 15,3 C 39 % 1015,9 hPa 0,0 l/m 3,7 km/h N 1,5 C 15,3 C 16,9 km/h
03.03.2017 13:00 15,5 C 40 % 1014,7 hPa 0,0 l/m 3,7 km/h N 1,9 C 15,5 C 17,3 km/h
03.03.2017 14:00 15,7 C 41 % 1013,5 hPa 0,0 l/m 3,1 km/h N 2,5 C 15,7 C 13,7 km/h
03.03.2017 15:00 14,8 C 46 % 1012,8 hPa 0,0 l/m 4,7 km/h N 3,2 C 14,8 C 17,7 km/h
03.03.2017 16:00 13,5 C 52 % 1012,1 hPa 0,0 l/m 4,2 km/h N 3,9 C 13,5 C 18,9 km/h
03.03.2017 17:00 12,4 C 57 % 1011,6 hPa 0,0 l/m 3,1 km/h N 4,0 C 12,4 C 15,7 km/h
03.03.2017 18:00 11,3 C 61 % 1011,3 hPa 0,0 l/m 1,8 km/h N 4,1 C 11,3 C 10,9 km/h
03.03.2017 19:00 10,5 C 65 % 1010,8 hPa 0,0 l/m 0,9 km/h N 4,0 C 10,5 C 8,0 km/h
03.03.2017 20:00 9,7 C 69 % 1010,4 hPa 0,0 l/m 0,3 km/h N 4,2 C 9,7 C 5,6 km/h
03.03.2017 21:00 9,4 C 71 % 1009,5 hPa 0,0 l/m 0,1 km/h N 4,4 C 9,4 C 2,0 km/h
03.03.2017 22:00 8,7 C 72 % 1008,7 hPa 0,0 l/m 0,0 km/h N 4,0 C 8,7 C 0,8 km/h
03.03.2017 23:00 7,6 C 76 % 1007,9 hPa 0,0 l/m 0,0 km/h N 3,6 C 7,6 C 1,2 km/h
04.03.2017 00:00 8,1 C 76 % 1006,8 hPa 0,0 l/m 0,0 km/h N 4,2 C 8,1 C 2,4 km/h
04.03.2017 01:00 6,5 C 76 % 1006,2 hPa 0,0 l/m 0,0 km/h N 2,6 C 6,5 C 0,8 km/h
04.03.2017 02:00 5,2 C 80 % 1005,6 hPa 0,0 l/m 0,7 km/h N 2,0 C 5,2 C 3,6 km/h
04.03.2017 03:00 4,7 C 83 % 1004,8 hPa 0,0 l/m 0,0 km/h N 2,0 C 4,7 C 0,8 km/h
04.03.2017 04:00 3,2 C 82 % 1004,5 hPa 0,0 l/m 0,1 km/h N 0,4 C 3,2 C 1,6 km/h
04.03.2017 05:00 2,3 C 83 % 1004,4 hPa 0,0 l/m 0,0 km/h N -0,2 C 2,3 C 0,4 km/h
04.03.2017 06:00 1,7 C 84 % 1004,2 hPa 0,0 l/m 0,1 km/h N -0,8 C 1,7 C 1,6 km/h
04.03.2017 07:00 1,7 C 83 % 1004,2 hPa 0,0 l/m 0,3 km/h N -0,8 C 1,7 C 3,6 km/h
04.03.2017 08:00 4,9 C 83 % 1003,9 hPa 0,0 l/m 0,5 km/h N 2,3 C 4,9 C 5,6 km/h
04.03.2017 09:00 8,0 C 82 % 1003,4 hPa 0,0 l/m 0,3 km/h N 5,1 C 8,0 C 4,0 km/h
04.03.2017 10:00 11,1 C 70 % 1002,8 hPa 0,0 l/m 0,7 km/h N 5,8 C 11,1 C 5,6 km/h
04.03.2017 11:00 14,3 C 57 % 1001,7 hPa 0,0 l/m 0,8 km/h N 5,9 C 14,3 C 6,0 km/h
04.03.2017 12:00 19,0 C 40 % 1000,3 hPa 0,0 l/m 4,9 km/h N 5,1 C 19,0 C 20,9 km/h
04.03.2017 13:00 20,4 C 35 % 999,8 hPa 0,0 l/m 8,5 km/h N 4,3 C 19,6 C 28,6 km/h
04.03.2017 14:00 19,0 C 40 % 999,3 hPa 0,0 l/m 9,3 km/h N 5,1 C 17,8 C 33,0 km/h
04.03.2017 15:00 18,5 C 43 % 999,2 hPa 0,0 l/m 7,9 km/h N 5,5 C 17,8 C 26,1 km/h
04.03.2017 16:00 16,4 C 46 % 999,7 hPa 0,0 l/m 9,1 km/h N 4,5 C 15,0 C 29,8 km/h
04.03.2017 17:00 15,1 C 51 % 1000,3 hPa 0,0 l/m 5,6 km/h N 5,0 C 15,1 C 19,7 km/h
04.03.2017 18:00 14,6 C 54 % 1000,7 hPa 0,0 l/m 5,5 km/h N 5,4 C 14,6 C 21,7 km/h
04.03.2017 19:00 14,5 C 54 % 1000,9 hPa 0,0 l/m 2,9 km/h N 5,1 C 14,5 C 15,3 km/h
04.03.2017 20:00 13,8 C 56 % 1000,9 hPa 0,0 l/m 0,7 km/h N 5,0 C 13,8 C 8,8 km/h
04.03.2017 21:00 13,6 C 56 % 1000,9 hPa 0,0 l/m 1,4 km/h N 5,0 C 13,6 C 9,3 km/h
04.03.2017 22:00 13,1 C 58 % 1000,8 hPa 0,0 l/m 1,0 km/h N 5,0 C 13,1 C 6,8 km/h
04.03.2017 23:00 12,3 C 61 % 1000,5 hPa 0,0 l/m 1,1 km/h N 4,9 C 12,3 C 11,3 km/h
05.03.2017 00:00 10,9 C 64 % 1000,6 hPa 0,0 l/m 0,2 km/h N 4,4 C 10,9 C 4,0 km/h
05.03.2017 01:00 10,1 C 69 % 1000,9 hPa 0,0 l/m 0,0 km/h N 4,7 C 10,1 C 2,0 km/h
05.03.2017 02:00 9,7 C 71 % 1000,8 hPa 0,0 l/m 0,3 km/h N 4,7 C 9,7 C 2,8 km/h
05.03.2017 03:00 10,2 C 72 % 1001,3 hPa 0,0 l/m 2,3 km/h N 5,3 C 10,2 C 12,5 km/h
05.03.2017 04:00 10,3 C 67 % 1002,6 hPa 0,0 l/m 4,0 km/h N 4,4 C 9,7 C 16,9 km/h
05.03.2017 05:00 11,4 C 59 % 1003,3 hPa 0,0 l/m 8,1 km/h N 3,8 C 10,1 C 26,2 km/h
05.03.2017 06:00 10,9 C 61 % 1004,6 hPa 0,0 l/m 3,5 km/h N 3,6 C 10,9 C 16,5 km/h
05.03.2017 07:00 10,5 C 62 % 1006,3 hPa 0,0 l/m 0,3 km/h N 3,4 C 10,5 C 5,2 km/h
05.03.2017 08:00 10,9 C 62 % 1007,2 hPa 0,0 l/m 0,2 km/h N 3,9 C 10,9 C 4,0 km/h
05.03.2017 09:00 12,1 C 59 % 1007,0 hPa 0,0 l/m 0,1 km/h N 4,4 C 12,1 C 2,8 km/h
05.03.2017 10:00 13,9 C 53 % 1007,0 hPa 0,0 l/m 1,3 km/h N 4,3 C 13,9 C 7,2 km/h
05.03.2017 11:00 14,7 C 48 % 1006,9 hPa 0,0 l/m 1,0 km/h N 3,7 C 14,7 C 6,4 km/h
05.03.2017 12:00 14,3 C 48 % 1006,3 hPa 0,0 l/m 2,1 km/h N 3,5 C 14,3 C 10,5 km/h
05.03.2017 13:00 14,1 C 49 % 1005,6 hPa 0,0 l/m 2,0 km/h N 3,4 C 14,1 C 12,5 km/h
05.03.2017 14:00 13,3 C 51 % 1005,0 hPa 0,0 l/m 2,0 km/h N 3,4 C 13,3 C 9,7 km/h
05.03.2017 15:00 12,4 C 57 % 1004,6 hPa 0,0 l/m 2,5 km/h N 4,0 C 12,4 C 12,9 km/h
05.03.2017 16:00 9,6 C 76 % 1004,3 hPa 1,0 l/m 2,0 km/h N 5,4 C 9,6 C 10,1 km/h
05.03.2017 17:00 8,6 C 81 % 1003,8 hPa 0,0 l/m 0,7 km/h N 5,5 C 8,6 C 4,8 km/h
05.03.2017 18:00 8,5 C 82 % 1003,7 hPa 0,0 l/m 0,6 km/h N 5,5 C 8,5 C 4,0 km/h
05.03.2017 19:00 8,3 C 82 % 1003,6 hPa 0,0 l/m 0,2 km/h N 5,4 C 8,3 C 2,4 km/h
05.03.2017 20:00 7,4 C 82 % 1003,3 hPa 0,0 l/m 0,0 km/h N 4,5 C 7,4 C 1,6 km/h
05.03.2017 21:00 6,8 C 82 % 1003,3 hPa 0,0 l/m 0,7 km/h N 4,0 C 6,8 C 6,0 km/h
05.03.2017 22:00 7,1 C 80 % 1002,8 hPa 0,0 l/m 0,8 km/h N 3,9 C 7,1 C 4,8 km/h
05.03.2017 23:00 6,5 C 80 % 1002,4 hPa 0,0 l/m 0,1 km/h N 3,2 C 6,5 C 1,6 km/h
Min-Datum _ 27.02.17 04.03.17 28.02.17 - 27.02.17 - 27.02.17 27.02.17 27.02.17
_ Min-Zeit 07:15 13:15 21:15 - 00:15 - 06:45 06:45 00:30
Minimum _ -2,7 C 34 % 996,4 hPa - 0,0 km/h - -5,2 C -2,6 C 0,0 km/h
Max-Datum _ 04.03.17 04.03.17 03.03.17 02.03.17 28.02.17 - 04.03.17 04.03.17 02.03.17
_ Max-Zeit 13:15 03:15 07:00 13:00 12:00 - 12:00 12:45 13:00
Maximum _ 20,6 C 86 % 1020,4 hPa 1,0 l/m 20,4 km/h
N
- 6,1 C 20,3 C 57,9 km/h
N
Durchschnitt _ 8,0 C 64 % 1007,2 hPa #3,1 l/m 3,5 km/h N 1,3 C 7,3 C 11,8 km/h